Colonial Heights, Tennessee
Current Conditions -  °F | °C
As of 3:53 PM on Thursday 23 Oct 2014 (Local Time) from KTRI Reporting Station
Few Clouds Few Clouds  
Wind Chill: 59°   Ceiling: Unl
Heat Index: 59°   Visibility: 10mi
Dew Point: 41°   Wind: 7mph
Humidity: 51%   Direction: 360°N
Pressure: 30.11"   Gusts: NA
Location:  36.4621°N, 82.5069°W
Report Text: KTRI 231953Z 36006KT 10SM FEW040 15/05 A3011 RMK AO2 SLP184 T01500050
Loading
Personal Weather Stations






























Interactive Weather Map
Tropical Storm Tracking
New forecast layout! Learn more

10-Day Weather Forecast

Advertisements
Track Severe Weather on mobile